EGHI

Southampton Airport

Southampton, United Kingdom
METAR EGHI 162120Z 30009KT 270V340 9999 FEW035 18/11 Q1015
Observed Flight Rules
Jul-16 @ 21:20 UTC (54 minutes ago) Visual Flight Rules
Wind Visibility Clouds
300° at 9 knots 10,000+ meters
  • Few at 3,500' AGL
Temperatures Readings
Current 18°C / 64°F
Dewpoint 11°C / 52°F
Humidity 64%
Altimeter 29.97" Hg
Pressure 1015 hPa
Elevation 14
METAR EGHI 162120Z 30009KT 270V340 9999 FEW035 18/11 Q1015
Observed Flight Rules
Jul-16 @ 21:20 UTC
(54 minutes ago)
VFR
Wind Visibility
300° at 9 knots 10,000+ meters
Clouds
  • Few at 3,500' AGL
Temperature Dewpoint
18°C / 64°F 11°C / 52°F
Humidity Altimeter Pressure
64% 29.97" Hg 1015 hPa